createdAt,value
2018-12-05T00:00:22.484Z,6.70
2018-12-05T00:02:57.466Z,6.70
2018-12-05T00:05:27.171Z,6.70
2018-12-05T00:08:02.784Z,6.70
2018-12-05T00:10:37.440Z,6.70
2018-12-05T00:13:12.343Z,6.60
2018-12-05T00:15:47.245Z,6.70
2018-12-05T00:18:22.067Z,6.70
2018-12-05T00:20:56.834Z,6.70
2018-12-05T00:23:31.574Z,6.60
2018-12-05T00:26:06.357Z,6.60
2018-12-05T00:28:41.168Z,6.60
2018-12-05T00:31:15.905Z,6.60
2018-12-05T00:33:51.185Z,6.60
2018-12-05T00:36:26.019Z,6.60
2018-12-05T00:39:00.815Z,6.60
2018-12-05T00:41:35.830Z,6.60
2018-12-05T00:44:10.592Z,6.60
2018-12-05T00:46:45.539Z,6.60
2018-12-05T00:49:20.228Z,6.60
2018-12-05T00:51:54.896Z,6.60
2018-12-05T00:54:30.059Z,6.60
2018-12-05T00:57:04.910Z,6.60
2018-12-05T00:59:39.754Z,6.60
2018-12-05T01:02:15.543Z,6.50
2018-12-05T01:04:50.507Z,6.50
2018-12-05T01:07:25.370Z,6.50
2018-12-05T01:10:00.506Z,6.50
2018-12-05T01:12:35.389Z,6.50
2018-12-05T01:15:10.223Z,6.50
2018-12-05T01:17:45.063Z,6.50
2018-12-05T01:20:19.967Z,6.40
2018-12-05T01:22:54.737Z,6.40
2018-12-05T01:25:29.797Z,6.30
2018-12-05T01:28:05.171Z,6.30
2018-12-05T01:30:39.820Z,6.30
2018-12-05T01:33:14.530Z,6.30
2018-12-05T01:35:49.301Z,6.30
2018-12-05T01:38:24.174Z,6.20
2018-12-05T01:40:59.110Z,6.20
2018-12-05T01:43:39.200Z,6.20
2018-12-05T01:46:14.276Z,6.20
2018-12-05T01:48:48.925Z,6.20
2018-12-05T01:51:23.861Z,6.10
2018-12-05T01:53:58.843Z,6.10
2018-12-05T01:56:34.185Z,6.10
2018-12-05T01:59:09.452Z,6.10
2018-12-05T02:01:44.377Z,6.10
2018-12-05T02:04:19.229Z,6.00
2018-12-05T02:06:54.104Z,6.00
2018-12-05T02:09:28.913Z,6.00
2018-12-05T02:12:04.306Z,6.00
2018-12-05T02:14:39.137Z,6.00
2018-12-05T02:17:14.576Z,6.00
2018-12-05T02:19:49.572Z,5.90
2018-12-05T02:22:24.336Z,5.90
2018-12-05T02:24:59.245Z,5.90
2018-12-05T02:27:34.076Z,5.90
2018-12-05T02:30:08.989Z,5.90
2018-12-05T02:32:43.845Z,5.90
2018-12-05T02:35:18.697Z,5.90
2018-12-05T02:37:53.322Z,5.90
2018-12-05T02:40:28.197Z,5.90
2018-12-05T02:43:02.951Z,5.90
2018-12-05T02:45:37.869Z,5.80
2018-12-05T02:48:12.735Z,5.80
2018-12-05T02:50:47.517Z,5.80
2018-12-05T02:53:22.178Z,5.70
2018-12-05T02:55:57.007Z,5.70
2018-12-05T02:58:31.907Z,5.70
2018-12-05T03:01:06.704Z,5.70
2018-12-05T03:03:42.265Z,5.60
2018-12-05T03:06:17.092Z,5.60
2018-12-05T03:08:52.479Z,5.60
2018-12-05T03:11:27.330Z,5.60
2018-12-05T03:14:01.996Z,5.60
2018-12-05T03:16:36.598Z,5.60
2018-12-05T03:19:11.300Z,5.60
2018-12-05T03:21:46.189Z,5.50
2018-12-05T03:24:20.821Z,5.50
2018-12-05T03:26:55.541Z,5.50
2018-12-05T03:29:30.277Z,5.50
2018-12-05T03:32:05.391Z,5.50
2018-12-05T03:34:40.894Z,5.50
2018-12-05T03:37:15.978Z,5.50
2018-12-05T03:39:50.744Z,5.50
2018-12-05T03:42:25.551Z,5.40
2018-12-05T03:45:00.173Z,5.40
2018-12-05T03:47:34.967Z,5.40
2018-12-05T03:50:09.687Z,5.40
2018-12-05T03:52:44.633Z,5.40
2018-12-05T03:55:20.238Z,5.40
2018-12-05T03:57:55.181Z,5.40
2018-12-05T04:00:29.864Z,5.40
2018-12-05T04:03:05.316Z,5.40
2018-12-05T04:05:40.124Z,5.40
2018-12-05T04:08:15.482Z,5.40
2018-12-05T04:10:50.516Z,5.40
2018-12-05T04:13:25.401Z,5.40
2018-12-05T04:16:00.181Z,5.30
2018-12-05T04:18:35.213Z,5.30
2018-12-05T04:21:09.832Z,5.20
2018-12-05T04:23:44.653Z,5.20
2018-12-05T04:26:19.371Z,5.20
2018-12-05T04:28:54.202Z,5.20
2018-12-05T04:31:28.876Z,5.20
2018-12-05T04:34:03.804Z,5.20
2018-12-05T04:36:38.843Z,5.20
2018-12-05T04:39:13.637Z,5.20
2018-12-05T04:41:49.230Z,5.20
2018-12-05T04:44:24.086Z,5.20
2018-12-05T04:46:58.890Z,5.20
2018-12-05T04:49:33.505Z,5.20
2018-12-05T04:52:08.481Z,5.20
2018-12-05T04:54:43.273Z,5.20
2018-12-05T04:57:17.930Z,5.20
2018-12-05T04:59:52.615Z,5.20
2018-12-05T05:02:27.692Z,5.20
2018-12-05T05:05:02.457Z,5.30
2018-12-05T05:07:37.252Z,5.30
2018-12-05T05:10:14.080Z,5.30
2018-12-05T05:12:48.801Z,5.30
2018-12-05T05:15:23.675Z,5.30
2018-12-05T05:17:58.344Z,5.40
2018-12-05T05:20:33.188Z,5.40
2018-12-05T05:23:08.253Z,5.40
2018-12-05T05:25:43.336Z,5.40
2018-12-05T05:28:18.131Z,5.50
2018-12-05T05:30:53.195Z,5.50
2018-12-05T05:33:28.722Z,5.50
2018-12-05T05:36:03.602Z,5.50
2018-12-05T05:38:38.542Z,5.50
2018-12-05T05:41:13.392Z,5.50
2018-12-05T05:43:48.184Z,5.50
2018-12-05T05:46:23.102Z,5.60
2018-12-05T05:48:58.371Z,5.60
2018-12-05T05:51:33.172Z,5.60
2018-12-05T05:54:07.928Z,5.60
2018-12-05T05:56:43.247Z,5.60
2018-12-05T05:59:18.163Z,5.60
2018-12-05T06:01:53.170Z,5.60
2018-12-05T06:04:28.082Z,5.60
2018-12-05T06:06:57.453Z,5.60
2018-12-05T06:09:26.784Z,5.60
2018-12-05T06:11:55.977Z,5.60
2018-12-05T06:14:25.156Z,5.60
2018-12-05T06:16:54.555Z,5.60
2018-12-05T06:19:23.957Z,5.60
2018-12-05T06:21:53.382Z,5.60
2018-12-05T06:24:22.662Z,5.60
2018-12-05T06:26:52.069Z,5.70
2018-12-05T06:29:26.835Z,5.70
2018-12-05T06:31:56.117Z,5.70
2018-12-05T06:34:25.392Z,5.70
2018-12-05T06:36:54.713Z,5.70
2018-12-05T06:39:24.000Z,5.80
2018-12-05T06:41:53.256Z,5.80
2018-12-05T06:44:28.215Z,5.80
2018-12-05T06:46:57.716Z,5.80
2018-12-05T06:49:27.142Z,5.80
2018-12-05T06:51:56.567Z,5.80
2018-12-05T06:54:31.295Z,5.80
2018-12-05T06:57:06.238Z,5.80
2018-12-05T06:59:41.463Z,5.80
2018-12-05T07:02:16.080Z,5.90
2018-12-05T07:04:50.756Z,5.80
2018-12-05T07:07:25.833Z,5.80
2018-12-05T07:10:01.961Z,5.90
2018-12-05T07:12:36.813Z,5.80
2018-12-05T07:15:11.713Z,5.80
2018-12-05T07:17:42.587Z,5.80
2018-12-05T07:20:17.705Z,5.80
2018-12-05T07:22:52.819Z,5.80
2018-12-05T07:25:27.826Z,5.80
2018-12-05T07:28:03.019Z,5.80
2018-12-05T07:30:37.943Z,5.80
2018-12-05T07:33:13.209Z,5.80
2018-12-05T07:35:47.803Z,5.80
2018-12-05T07:38:22.641Z,5.80
2018-12-05T07:40:57.481Z,5.80
2018-12-05T07:43:32.320Z,5.90
2018-12-05T07:46:07.151Z,5.90
2018-12-05T07:48:41.999Z,5.90
2018-12-05T07:51:16.870Z,5.90
2018-12-05T07:53:51.784Z,5.90
2018-12-05T07:56:26.763Z,6.00
2018-12-05T07:59:01.822Z,6.00
2018-12-05T08:01:36.703Z,6.00
2018-12-05T08:04:11.559Z,6.00
2018-12-05T08:06:46.586Z,6.00
2018-12-05T08:09:21.636Z,6.00
2018-12-05T08:11:56.352Z,6.10
2018-12-05T08:14:31.081Z,6.10
2018-12-05T08:17:06.337Z,6.10
2018-12-05T08:19:41.159Z,6.20
2018-12-05T08:22:15.884Z,6.20
2018-12-05T08:24:50.786Z,6.20
2018-12-05T08:27:25.646Z,6.30
2018-12-05T08:30:00.803Z,6.30
2018-12-05T08:32:35.745Z,6.30
2018-12-05T08:35:11.183Z,6.40
2018-12-05T08:37:45.986Z,6.40
2018-12-05T08:40:21.078Z,6.50
2018-12-05T08:42:55.984Z,6.50
2018-12-05T08:45:31.134Z,6.50
2018-12-05T08:48:06.145Z,6.60
2018-12-05T08:50:40.971Z,6.60
2018-12-05T08:53:15.931Z,6.60
2018-12-05T08:55:50.824Z,6.60
2018-12-05T08:58:25.730Z,6.60
2018-12-05T09:01:00.559Z,6.70
2018-12-05T09:03:35.424Z,6.70
2018-12-05T09:06:10.874Z,6.70
2018-12-05T09:08:45.826Z,6.70
2018-12-05T09:11:20.696Z,6.70
2018-12-05T09:13:55.520Z,6.80
2018-12-05T09:16:34.192Z,6.80
2018-12-05T09:19:08.970Z,6.90
2018-12-05T09:21:43.960Z,6.90
2018-12-05T09:24:19.047Z,6.90
2018-12-05T09:26:53.712Z,6.90
2018-12-05T09:29:28.814Z,6.90
2018-12-05T09:32:03.764Z,6.90
2018-12-05T09:34:38.705Z,6.90
2018-12-05T09:37:13.787Z,7.00
2018-12-05T09:39:48.671Z,7.00
2018-12-05T09:42:23.328Z,7.00
2018-12-05T09:44:58.250Z,7.10
2018-12-05T09:47:32.937Z,7.10
2018-12-05T09:50:09.220Z,7.10
2018-12-05T09:52:44.023Z,7.20
2018-12-05T09:55:18.790Z,7.20
2018-12-05T09:57:53.924Z,7.20
2018-12-05T10:00:28.564Z,7.20
2018-12-05T10:03:03.254Z,7.20
2018-12-05T10:05:38.117Z,7.20
2018-12-05T10:08:13.019Z,7.20
2018-12-05T10:10:47.818Z,7.30
2018-12-05T10:13:22.708Z,7.30
2018-12-05T10:15:57.488Z,7.40
2018-12-05T10:18:32.369Z,7.40
2018-12-05T10:21:07.452Z,7.40
2018-12-05T10:23:42.187Z,7.40
2018-12-05T10:26:17.404Z,7.50
2018-12-05T10:28:52.278Z,7.60
2018-12-05T10:31:27.133Z,7.60
2018-12-05T10:34:02.131Z,7.60
2018-12-05T10:36:36.932Z,7.70
2018-12-05T10:39:11.695Z,7.70
2018-12-05T10:41:46.630Z,7.70
2018-12-05T10:44:21.651Z,7.80
2018-12-05T10:46:56.238Z,7.70
2018-12-05T10:49:31.100Z,7.80
2018-12-05T10:52:06.092Z,7.80
2018-12-05T10:54:41.128Z,7.90
2018-12-05T10:57:15.770Z,8.00
2018-12-05T10:59:50.501Z,8.00
2018-12-05T11:02:25.686Z,8.00
2018-12-05T11:05:05.660Z,8.10
2018-12-05T11:07:45.596Z,8.10
2018-12-05T11:10:26.557Z,8.10
2018-12-05T11:13:01.407Z,8.10
2018-12-05T11:15:36.639Z,8.20
2018-12-05T11:18:11.003Z,8.20
2018-12-05T11:20:45.581Z,8.20
2018-12-05T11:23:20.628Z,8.20
2018-12-05T11:25:51.127Z,8.20
2018-12-05T11:28:21.254Z,8.20
2018-12-05T11:30:50.662Z,8.30
2018-12-05T11:33:19.933Z,8.30
2018-12-05T11:35:51.393Z,8.30
2018-12-05T11:38:21.428Z,8.30
2018-12-05T11:40:50.579Z,8.30
2018-12-05T11:43:20.112Z,8.30
2018-12-05T11:45:49.750Z,8.20
2018-12-05T11:48:19.142Z,8.30
2018-12-05T11:50:48.228Z,8.30
2018-12-05T11:53:17.848Z,8.30
2018-12-05T11:55:47.171Z,8.30
2018-12-05T11:58:16.496Z,8.30
2018-12-05T12:00:45.728Z,8.30
2018-12-05T12:03:14.865Z,8.30
2018-12-05T12:05:44.138Z,8.30
2018-12-05T12:08:13.376Z,8.30
2018-12-05T12:10:43.100Z,8.30
2018-12-05T12:13:13.320Z,8.30
2018-12-05T12:15:42.585Z,8.30
2018-12-05T12:18:11.730Z,8.30
2018-12-05T12:20:41.342Z,8.40
2018-12-05T12:23:10.490Z,8.40
2018-12-05T12:25:40.116Z,8.50
2018-12-05T12:28:09.461Z,8.50
2018-12-05T12:30:38.640Z,8.50
2018-12-05T12:33:07.970Z,8.60
2018-12-05T12:35:37.635Z,8.60
2018-12-05T12:38:07.171Z,8.70
2018-12-05T12:40:36.259Z,8.70
2018-12-05T12:43:05.522Z,8.70
2018-12-05T12:45:34.588Z,8.80
2018-12-05T12:48:04.281Z,8.80
2018-12-05T12:50:33.443Z,8.80
2018-12-05T12:53:02.784Z,8.80
2018-12-05T12:55:32.118Z,8.80
2018-12-05T12:58:01.394Z,8.80
2018-12-05T13:00:30.845Z,8.80
2018-12-05T13:02:59.949Z,8.80
2018-12-05T13:05:29.089Z,8.80
2018-12-05T13:07:58.297Z,8.80
2018-12-05T13:10:27.371Z,8.90
2018-12-05T13:12:56.508Z,8.90
2018-12-05T13:15:25.731Z,8.90
2018-12-05T13:17:54.829Z,8.90
2018-12-05T13:20:24.219Z,8.90
2018-12-05T13:22:53.282Z,8.90
2018-12-05T13:25:22.327Z,8.90
2018-12-05T13:27:51.456Z,8.80
2018-12-05T13:30:21.124Z,8.80
2018-12-05T13:32:50.242Z,8.80
2018-12-05T13:35:19.890Z,8.70
2018-12-05T13:37:49.078Z,8.70
2018-12-05T13:40:18.683Z,8.70
2018-12-05T13:42:47.969Z,8.70
2018-12-05T13:45:17.812Z,8.70
2018-12-05T13:47:46.876Z,8.80
2018-12-05T13:50:15.996Z,8.80
2018-12-05T13:52:45.113Z,8.80
2018-12-05T13:55:14.983Z,8.80
2018-12-05T13:57:47.246Z,8.70
2018-12-05T14:00:17.100Z,8.70
2018-12-05T14:02:46.682Z,8.70
2018-12-05T14:05:15.776Z,8.70
2018-12-05T14:07:44.940Z,8.80
2018-12-05T14:10:14.933Z,8.80
2018-12-05T14:12:44.090Z,8.80
2018-12-05T14:15:13.471Z,8.80
2018-12-05T14:17:42.575Z,8.80
2018-12-05T14:20:13.497Z,8.80
2018-12-05T14:22:43.548Z,8.70
2018-12-05T14:25:12.740Z,8.70
2018-12-05T14:27:42.021Z,8.70
2018-12-05T14:30:12.067Z,8.70
2018-12-05T14:32:41.235Z,8.70
2018-12-05T14:35:10.763Z,8.70
2018-12-05T14:37:40.468Z,8.70
2018-12-05T14:40:09.556Z,8.70
2018-12-05T14:42:39.159Z,8.70
2018-12-05T14:45:08.942Z,8.70
2018-12-05T14:47:38.562Z,8.70
2018-12-05T14:50:08.569Z,8.70
2018-12-05T14:52:38.022Z,8.70
2018-12-05T14:55:07.673Z,8.70
2018-12-05T14:57:37.017Z,8.70
2018-12-05T15:00:08.233Z,8.70
2018-12-05T15:02:37.512Z,8.70
2018-12-05T15:05:07.236Z,8.70
2018-12-05T15:07:36.350Z,8.70
2018-12-05T15:10:06.657Z,8.70
2018-12-05T15:12:35.825Z,8.60
2018-12-05T15:15:06.173Z,8.60
2018-12-05T15:17:35.771Z,8.50
2018-12-05T15:20:06.097Z,8.50
2018-12-05T15:22:35.327Z,8.50
2018-12-05T15:25:05.509Z,8.50
2018-12-05T15:27:34.621Z,8.50
2018-12-05T15:30:04.994Z,8.50
2018-12-05T15:32:34.130Z,8.50
2018-12-05T15:35:04.415Z,8.50
2018-12-05T15:37:33.596Z,8.40
2018-12-05T15:40:03.181Z,8.30
2018-12-05T15:42:32.275Z,8.30
2018-12-05T15:45:01.515Z,8.20
2018-12-05T15:47:30.801Z,8.20
2018-12-05T15:49:59.914Z,8.20
2018-12-05T15:52:28.997Z,8.20
2018-12-05T15:54:58.304Z,8.20
2018-12-05T15:57:27.420Z,8.20
2018-12-05T15:59:56.898Z,8.30
2018-12-05T16:02:26.248Z,8.30
2018-12-05T16:04:55.507Z,8.30
2018-12-05T16:07:24.839Z,8.30
2018-12-05T16:09:54.110Z,8.30
2018-12-05T16:12:23.706Z,8.30
2018-12-05T16:14:53.221Z,8.30
2018-12-05T16:17:22.356Z,8.40
2018-12-05T16:19:51.564Z,8.40
2018-12-05T16:22:20.697Z,8.40
2018-12-05T16:24:49.919Z,8.40
2018-12-05T16:27:19.060Z,8.40
2018-12-05T16:29:48.612Z,8.40
2018-12-05T16:32:18.001Z,8.40
2018-12-05T16:34:47.806Z,8.40
2018-12-05T16:37:17.047Z,8.50
2018-12-05T16:39:46.935Z,8.50
2018-12-05T16:42:17.088Z,8.50
2018-12-05T16:44:46.505Z,8.50
2018-12-05T16:47:15.604Z,8.50
2018-12-05T16:49:44.865Z,8.50
2018-12-05T16:52:14.343Z,8.50
2018-12-05T16:54:44.079Z,8.50
2018-12-05T16:57:13.591Z,8.50
2018-12-05T16:59:42.705Z,8.60
2018-12-05T17:02:12.239Z,8.60
2018-12-05T17:04:41.992Z,8.60
2018-12-05T17:07:11.285Z,8.60
2018-12-05T17:09:40.818Z,8.60
2018-12-05T17:12:10.306Z,8.60
2018-12-05T17:14:39.544Z,8.60
2018-12-05T17:17:08.946Z,8.60
2018-12-05T17:19:38.172Z,8.60
2018-12-05T17:22:07.424Z,8.60
2018-12-05T17:24:37.120Z,8.60
2018-12-05T17:27:06.428Z,8.60
2018-12-05T17:29:35.645Z,8.60
2018-12-05T17:32:05.011Z,8.60
2018-12-05T17:34:34.313Z,8.60
2018-12-05T17:37:03.618Z,8.60
2018-12-05T17:39:32.927Z,8.60
2018-12-05T17:42:02.111Z,8.60
2018-12-05T17:44:31.522Z,8.60
2018-12-05T17:47:00.897Z,8.60
2018-12-05T17:49:30.594Z,8.70
2018-12-05T17:52:00.108Z,8.60
2018-12-05T17:54:29.834Z,8.60
2018-12-05T17:56:59.008Z,8.50
2018-12-05T17:59:28.520Z,8.60
2018-12-05T18:01:58.195Z,8.60
2018-12-05T18:04:27.391Z,8.50
2018-12-05T18:06:57.125Z,8.60
2018-12-05T18:09:26.479Z,8.60
2018-12-05T18:11:56.382Z,8.60
2018-12-05T18:14:25.760Z,8.60
2018-12-05T18:16:55.721Z,8.60
2018-12-05T18:19:26.635Z,8.60
2018-12-05T18:21:56.218Z,8.60
2018-12-05T18:24:25.566Z,8.60
2018-12-05T18:26:55.901Z,8.60
2018-12-05T18:29:25.105Z,8.70
2018-12-05T18:31:54.400Z,8.70
2018-12-05T18:34:23.678Z,8.70
2018-12-05T18:36:52.822Z,8.70
2018-12-05T18:39:27.777Z,8.70
2018-12-05T18:42:02.720Z,8.70
2018-12-05T18:44:37.554Z,8.70
2018-12-05T18:47:12.568Z,8.70
2018-12-05T18:49:47.409Z,8.80
2018-12-05T18:52:22.702Z,8.80
2018-12-05T18:54:57.715Z,8.80
2018-12-05T18:57:32.670Z,8.80
2018-12-05T19:00:10.308Z,8.80
2018-12-05T19:02:45.191Z,8.80
2018-12-05T19:05:20.134Z,8.80
2018-12-05T19:07:55.152Z,8.80
2018-12-05T19:10:30.256Z,8.80
2018-12-05T19:13:05.358Z,8.80
2018-12-05T19:15:40.163Z,8.80
2018-12-05T19:18:15.138Z,8.80
2018-12-05T19:20:46.465Z,8.80
2018-12-05T19:23:15.796Z,8.80
2018-12-05T19:25:44.931Z,8.80
2018-12-05T19:28:14.673Z,8.80
2018-12-05T19:30:43.943Z,8.80
2018-12-05T19:33:13.507Z,8.80
2018-12-05T19:35:42.916Z,8.90
2018-12-05T19:38:12.326Z,8.90
2018-12-05T19:40:41.605Z,8.90
2018-12-05T19:43:10.799Z,8.90
2018-12-05T19:45:39.890Z,8.90
2018-12-05T19:48:09.582Z,8.90
2018-12-05T19:50:38.759Z,8.90
2018-12-05T19:53:08.443Z,8.90
2018-12-05T19:55:37.722Z,8.90
2018-12-05T19:58:10.164Z,8.90
2018-12-05T20:00:39.612Z,8.90
2018-12-05T20:03:09.375Z,8.80
2018-12-05T20:05:39.059Z,8.80
2018-12-05T20:08:08.913Z,8.90
2018-12-05T20:10:38.330Z,8.90
2018-12-05T20:13:08.450Z,8.90
2018-12-05T20:15:37.933Z,8.90
2018-12-05T20:18:07.228Z,8.90
2018-12-05T20:20:36.670Z,8.90
2018-12-05T20:23:06.462Z,8.90
2018-12-05T20:25:35.952Z,8.90
2018-12-05T20:28:05.750Z,8.90
2018-12-05T20:30:35.313Z,8.90
2018-12-05T20:33:04.533Z,8.90
2018-12-05T20:35:33.948Z,8.90
2018-12-05T20:38:03.748Z,8.90
2018-12-05T20:40:33.527Z,8.90
2018-12-05T20:43:02.669Z,8.90
2018-12-05T20:45:31.854Z,9.00
2018-12-05T20:48:01.164Z,9.00
2018-12-05T20:50:31.664Z,9.00
2018-12-05T20:53:00.955Z,9.00
2018-12-05T20:55:35.782Z,9.00
2018-12-05T20:58:10.901Z,9.00
2018-12-05T21:00:45.902Z,8.90
2018-12-05T21:03:21.046Z,8.90
2018-12-05T21:05:56.198Z,8.90
2018-12-05T21:08:30.964Z,8.90
2018-12-05T21:11:06.182Z,8.90
2018-12-05T21:13:42.953Z,9.00
2018-12-05T21:16:18.505Z,8.90
2018-12-05T21:18:53.524Z,8.90
2018-12-05T21:21:28.559Z,8.90
2018-12-05T21:24:03.556Z,8.90
2018-12-05T21:26:38.466Z,8.90
2018-12-05T21:29:13.461Z,8.90
2018-12-05T21:31:48.742Z,8.90
2018-12-05T21:34:23.776Z,8.80
2018-12-05T21:36:59.132Z,8.70
2018-12-05T21:39:33.840Z,8.70
2018-12-05T21:42:09.581Z,8.70
2018-12-05T21:44:44.945Z,8.70
2018-12-05T21:47:19.890Z,8.70
2018-12-05T21:49:55.100Z,8.70
2018-12-05T21:52:29.797Z,8.70
2018-12-05T21:55:06.561Z,8.70
2018-12-05T21:57:41.628Z,8.70
2018-12-05T22:00:16.716Z,8.70
2018-12-05T22:02:51.945Z,8.70
2018-12-05T22:05:26.946Z,8.70
2018-12-05T22:08:01.675Z,8.70
2018-12-05T22:10:36.598Z,8.70
2018-12-05T22:13:11.422Z,8.70
2018-12-05T22:15:46.329Z,8.80
2018-12-05T22:18:21.194Z,8.80
2018-12-05T22:20:56.323Z,8.80
2018-12-05T22:23:25.936Z,8.90
2018-12-05T22:26:01.219Z,8.80
2018-12-05T22:28:36.281Z,8.90
2018-12-05T22:31:11.313Z,8.90
2018-12-05T22:33:46.233Z,8.90
2018-12-05T22:36:21.153Z,8.90
2018-12-05T22:38:56.340Z,8.90
2018-12-05T22:41:31.092Z,8.90
2018-12-05T22:44:06.238Z,8.90
2018-12-05T22:46:42.712Z,8.90
2018-12-05T22:49:17.927Z,8.90
2018-12-05T22:51:52.821Z,8.90
2018-12-05T22:54:25.537Z,8.80
2018-12-05T22:57:11.963Z,8.80
2018-12-05T22:59:46.558Z,8.70
2018-12-05T23:02:21.797Z,8.70
2018-12-05T23:04:56.678Z,8.70
2018-12-05T23:07:31.481Z,8.70
2018-12-05T23:10:06.825Z,8.80
2018-12-05T23:12:41.774Z,8.80
2018-12-05T23:15:10.888Z,8.80
2018-12-05T23:17:45.728Z,8.80
2018-12-05T23:20:20.587Z,8.90
2018-12-05T23:22:55.759Z,8.90
2018-12-05T23:25:31.033Z,8.90
2018-12-05T23:28:05.919Z,8.90
2018-12-05T23:30:40.936Z,8.90
2018-12-05T23:33:16.230Z,8.90
2018-12-05T23:35:51.297Z,8.90
2018-12-05T23:38:26.666Z,8.90
2018-12-05T23:41:01.613Z,8.90
2018-12-05T23:43:37.018Z,8.90
2018-12-05T23:46:12.029Z,9.00
2018-12-05T23:48:46.913Z,9.00
2018-12-05T23:51:21.825Z,9.00
2018-12-05T23:53:56.687Z,9.00
2018-12-05T23:56:31.780Z,9.10
2018-12-05T23:59:06.532Z,9.10
